Time;durP1;ratioP1;P1;durP2;ratioP2;P2;SDS_P1;SDS_P2;PMS_P1;PMS_P2;Temp;Humidity;BMP_temperature;BMP_pressure;BME280_temperature;BME280_humidity;BME280_pressure;Samples;Min_cycle;Max_cycle;Signal;HPM_P1;HPM_P2
2021/10/28 00:12:22;;;;;;;15.00;8.25;;;;;;;2.23;94.88;96021.63;5086570;28;20044;-69
2021/10/28 00:14:54;;;;;;;16.95;8.93;;;;;;;2.20;94.92;96025.31;5065365;28;20040;-68
2021/10/28 00:20:09;;;;;;;18.90;9.48;;;;;;;2.08;94.47;96008.50;5077191;28;20509;-69
2021/10/28 00:22:38;;;;;;;20.10;9.38;;;;;;;2.06;95.23;96011.22;5098053;28;20097;-69
2021/10/28 00:25:07;;;;;;;18.42;9.52;;;;;;;2.09;95.15;96025.56;5081023;28;20501;-68
2021/10/28 00:27:34;;;;;;;17.08;8.68;;;;;;;1.98;95.34;96018.88;5082484;28;20577;-68
2021/10/28 00:30:01;;;;;;;17.10;9.38;;;;;;;1.87;95.00;96001.09;5084229;28;20505;-68
2021/10/28 00:32:28;;;;;;;15.40;7.30;;;;;;;1.98;95.05;96018.03;5085278;28;20048;-68
2021/10/28 00:34:55;;;;;;;15.10;8.55;;;;;;;1.96;94.73;96020.75;5078216;28;20070;-68
2021/10/28 00:37:22;;;;;;;18.45;8.27;;;;;;;1.92;94.68;96014.31;5080905;28;20048;-68
2021/10/28 00:39:50;;;;;;;18.60;8.40;;;;;;;1.96;94.67;96020.75;5080733;28;20035;-68
2021/10/28 00:42:18;;;;;;;13.43;8.18;;;;;;;1.93;94.65;96021.09;5081047;28;20036;-69
2021/10/28 00:44:46;;;;;;;17.30;7.53;;;;;;;1.91;94.18;96012.72;5078356;28;20421;-69
2021/10/28 00:47:13;;;;;;;16.38;8.95;;;;;;;1.87;94.30;96021.66;5098778;28;20489;-68
2021/10/28 00:49:41;;;;;;;18.27;7.45;;;;;;;1.83;93.79;96015.19;5079049;28;20105;-69
2021/10/28 00:52:08;;;;;;;13.98;7.55;;;;;;;1.77;93.68;96010.66;5082640;28;20070;-69
2021/10/28 00:54:35;;;;;;;13.10;6.43;;;;;;;1.69;93.51;96004.50;5081693;28;20036;-68
2021/10/28 00:57:03;;;;;;;13.85;6.45;;;;;;;1.64;93.02;95999.00;5068749;28;20040;-69
2021/10/28 00:59:30;;;;;;;17.25;7.97;;;;;;;1.65;93.15;96002.34;5050522;28;20646;-68
2021/10/28 01:01:58;;;;;;;11.25;6.63;;;;;;;1.56;93.05;95988.63;5063726;28;20114;-69
2021/10/28 01:04:25;;;;;;;15.27;7.57;;;;;;;1.56;93.21;95993.75;5067008;28;20041;-69
2021/10/28 01:06:51;;;;;;;16.90;9.02;;;;;;;1.61;93.41;95998.47;5068568;28;20417;-69
2021/10/28 01:09:22;;;;;;;16.73;8.45;;;;;;;1.55;93.70;95999.88;5064478;28;20044;-69
2021/10/28 01:11:51;;;;;;;16.17;9.90;;;;;;;1.45;93.48;95991.41;5056439;28;20101;-69
2021/10/28 01:14:18;;;;;;;72.85;30.23;;;;;;;1.42;93.25;95991.69;5064185;28;20063;-69
2021/10/28 01:16:45;;;;;;;45.40;21.23;;;;;;;1.34;93.36;95990.66;5065427;28;20048;-69
2021/10/28 01:19:12;;;;;;;31.33;14.02;;;;;;;1.34;93.38;95990.66;5049485;28;20071;-69
2021/10/28 01:21:39;;;;;;;20.63;10.68;;;;;;;1.29;94.02;95990.28;5063784;28;20044;-69
2021/10/28 01:24:06;;;;;;;18.30;8.77;;;;;;;1.24;94.55;95989.94;5082227;28;20135;-69
2021/10/28 01:26:33;;;;;;;15.48;7.43;;;;;;;0.97;95.11;95962.50;5069901;28;20464;-69
2021/10/28 01:29:02;;;;;;;21.92;9.30;;;;;;;1.17;95.38;95994.03;5066415;28;20048;-69
2021/10/28 01:31:31;;;;;;;29.55;14.38;;;;;;;1.18;95.77;95985.34;5064416;28;20063;-69
2021/10/28 01:34:01;;;;;;;39.47;19.13;;;;;;;1.18;95.35;95985.34;5064042;28;20040;-69
2021/10/28 01:36:28;;;;;;;23.85;12.57;;;;;;;1.14;95.66;95981.47;5065018;28;20040;-69
2021/10/28 01:38:55;;;;;;;21.55;11.38;;;;;;;1.15;95.20;95985.63;5066190;28;20098;-70
2021/10/28 01:41:23;;;;;;;55.50;26.60;;;;;;;1.05;95.42;95978.00;5066777;28;20183;-69
2021/10/28 01:43:50;;;;;;;76.00;34.35;;;;;;;1.04;95.85;95983.28;5062733;28;20045;-69
2021/10/28 01:46:16;;;;;;;39.03;19.58;;;;;;;1.06;95.70;95983.94;5065031;28;20048;-69
2021/10/28 01:48:44;;;;;;;28.85;13.77;;;;;;;1.05;95.90;95984.91;5065317;28;20047;-69
2021/10/28 01:51:11;;;;;;;27.08;13.23;;;;;;;1.05;95.34;95984.91;5063035;28;20751;-69
2021/10/28 01:53:41;;;;;;;20.58;11.13;;;;;;;1.09;95.55;95981.09;5052904;28;20153;-69
2021/10/28 01:56:09;;;;;;;15.88;9.13;;;;;;;1.01;96.12;95974.13;5064080;28;20044;-69
2021/10/28 01:58:37;;;;;;;18.20;9.15;;;;;;;1.06;96.08;95981.38;5062784;28;20421;-69
2021/10/28 02:01:06;;;;;;;20.17;10.40;;;;;;;0.99;96.35;95975.19;5061589;28;20502;-69
2021/10/28 02:03:34;;;;;;;15.15;8.57;;;;;;;0.90;96.80;95972.56;5064208;28;20032;-68
2021/10/28 02:06:02;;;;;;;21.70;12.02;;;;;;;0.84;96.54;95970.53;5062191;28;20032;-69
2021/10/28 02:08:29;;;;;;;16.88;8.80;;;;;;;0.88;96.49;95974.47;5061854;28;20040;-69
2021/10/28 02:10:56;;;;;;;18.92;9.70;;;;;;;0.92;96.06;95980.91;5063624;28;20044;-69
2021/10/28 02:13:26;;;;;;;18.95;8.65;;;;;;;0.89;96.09;95983.75;5061512;28;20468;-69
2021/10/28 02:15:53;;;;;;;22.63;10.52;;;;;;;0.84;95.91;95967.97;5062819;28;20036;-69
2021/10/28 02:18:21;;;;;;;19.33;8.57;;;;;;;0.84;96.65;95967.16;5063616;28;20074;-69
2021/10/28 02:20:48;;;;;;;25.15;9.73;;;;;;;0.88;96.69;95979.59;5062036;28;20421;-69
2021/10/28 02:23:14;;;;;;;18.17;7.95;;;;;;;0.87;97.03;95977.97;5081604;28;20037;-69
2021/10/28 02:25:41;;;;;;;19.38;8.55;;;;;;;0.63;96.84;95934.06;5064496;28;20516;-69
2021/10/28 02:28:08;;;;;;;15.18;7.00;;;;;;;0.81;96.90;95978.53;5062887;28;20037;-66
2021/10/28 02:30:36;;;;;;;21.80;8.98;;;;;;;0.86;97.41;95981.47;5065988;28;20156;-66
2021/10/28 02:33:03;;;;;;;20.77;8.05;;;;;;;0.88;97.94;95987.28;5066807;28;20040;-66
2021/10/28 02:35:30;;;;;;;21.73;9.25;;;;;;;0.84;98.23;95983.38;5065103;28;20047;-66
2021/10/28 02:37:57;;;;;;;21.42;8.63;;;;;;;0.84;98.25;95980.78;5062330;28;20613;-69
2021/10/28 02:40:28;;;;;;;18.42;9.85;;;;;;;0.80;97.88;95976.91;5067510;28;20102;-69
2021/10/28 02:42:55;;;;;;;18.40;8.13;;;;;;;0.82;97.83;95984.47;5079780;28;20502;-69
2021/10/28 02:45:22;;;;;;;16.30;8.45;;;;;;;0.74;97.95;95977.50;5063084;28;20048;-69
2021/10/28 02:47:50;;;;;;;23.65;9.68;;;;;;;0.76;97.94;95975.59;5065240;28;20102;-70
2021/10/28 02:50:17;;;;;;;19.08;9.15;;;;;;;0.73;98.32;95978.44;5065742;28;20055;-70
2021/10/28 02:52:44;;;;;;;22.67;10.63;;;;;;;0.71;98.60;95988.03;5074005;28;20417;-69
2021/10/28 02:55:11;;;;;;;23.42;10.05;;;;;;;0.65;98.32;95983.44;5076309;28;20048;-70
2021/10/28 02:57:41;;;;;;;25.08;10.13;;;;;;;0.65;98.43;95988.56;5067978;28;20041;-70
2021/10/28 03:00:10;;;;;;;18.70;9.38;;;;;;;0.62;98.54;95987.09;5065162;28;20513;-69
2021/10/28 03:02:37;;;;;;;21.85;10.23;;;;;;;0.55;98.62;95984.28;5064715;28;20047;-70
2021/10/28 03:05:06;;;;;;;26.63;10.10;;;;;;;0.60;98.57;95995.91;5064976;28;20040;-69
2021/10/28 03:07:34;;;;;;;22.55;10.07;;;;;;;0.57;98.87;95990.06;5064396;28;20040;-69
2021/10/28 03:10:03;;;;;;;18.10;9.20;;;;;;;0.53;98.92;95973.38;5075498;28;20113;-70
2021/10/28 03:12:30;;;;;;;25.88;9.75;;;;;;;0.60;98.98;95995.91;5078592;28;20047;-69
2021/10/28 03:15:02;;;;;;;23.40;9.52;;;;;;;0.52;98.88;95984.59;5064439;28;20033;-69
2021/10/28 03:28:12;;;;;;;24.00;9.27;;;;;;;0.45;98.43;95998.06;5068999;28;20052;-70
2021/10/28 03:30:39;;;;;;;;;;;;;;;0.49;98.25;95995.09;5089764;28;20410;-69
2021/10/28 03:33:09;;;;;;;17.02;8.15;;;;;;;0.44;98.70;95999.84;5069662;28;19924;-69
2021/10/28 03:35:35;;;;;;;26.65;8.70;;;;;;;0.36;99.11;95989.47;5077970;28;20036;-69
2021/10/28 03:38:46;;;;;;;24.63;12.15;;;;;;;0.29;98.93;95988.41;5066527;28;20055;-70
2021/10/28 04:05:36;;;;;;;;;;;;;;;0.39;100.00;96025.06;5069829;28;20148;-69
2021/10/28 04:21:04;;;;;;;34.15;14.75;;;;;;;0.51;100.00;96008.59;5064334;28;20041;-69
2021/10/28 04:29:04;;;;;;;27.73;12.02;;;;;;;0.63;100.00;96021.22;5067096;28;20047;-70
2021/10/28 04:31:36;;;;;;;27.35;11.07;;;;;;;0.63;100.00;96026.38;5074931;28;20047;-69
2021/10/28 04:34:09;;;;;;;30.90;10.18;;;;;;;0.61;100.00;96025.69;5078802;28;20110;-69
2021/10/28 04:36:37;;;;;;;23.50;10.38;;;;;;;0.71;100.00;96023.91;5067359;28;20048;-70
2021/10/28 04:39:07;;;;;;;21.45;11.93;;;;;;;0.72;100.00;96025.53;5068172;28;20047;-69
2021/10/28 04:41:34;;;;;;;25.15;11.60;;;;;;;0.69;100.00;96015.56;5075111;28;20044;-69
2021/10/28 04:44:01;;;;;;;25.50;11.35;;;;;;;0.79;100.00;96021.44;5056855;28;20550;-69
2021/10/28 04:46:28;;;;;;;23.35;10.57;;;;;;;0.80;100.00;96023.06;5073932;28;20466;-69
2021/10/28 04:48:55;;;;;;;19.98;9.85;;;;;;;0.73;100.00;96022.81;5069607;28;20407;-70
2021/10/28 04:51:21;;;;;;;19.63;9.27;;;;;;;0.74;100.00;96023.66;5078828;28;20089;-69
2021/10/28 04:53:48;;;;;;;23.50;10.27;;;;;;;0.71;100.00;96029.03;5073602;28;20193;-70
2021/10/28 04:56:15;;;;;;;18.67;9.13;;;;;;;0.72;100.00;96028.09;5060763;28;20040;-70
2021/10/28 04:58:43;;;;;;;33.70;14.82;;;;;;;0.68;100.00;96031.88;5065437;28;20468;-70
2021/10/28 05:01:09;;;;;;;51.25;21.58;;;;;;;0.72;100.00;96048.59;5066005;28;20993;-70
2021/10/28 05:03:37;;;;;;;35.28;15.05;;;;;;;0.71;100.00;96044.44;5066254;28;20044;-70
2021/10/28 05:06:04;;;;;;;22.95;10.98;;;;;;;0.71;100.00;96039.31;5065241;28;20512;-70
2021/10/28 05:08:34;;;;;;;29.13;11.82;;;;;;;0.69;100.00;96046.34;5063156;28;20060;-70
2021/10/28 05:11:01;;;;;;;37.90;15.70;;;;;;;0.61;100.00;96039.31;5046523;28;20053;-70
2021/10/28 05:13:28;;;;;;;93.15;38.42;;;;;;;0.62;100.00;96045.28;5065159;28;20079;-70
2021/10/28 05:15:55;;;;;;;33.85;16.85;;;;;;;0.65;100.00;96044.97;5077556;28;20049;-70
2021/10/28 05:18:25;;;;;;;57.78;21.13;;;;;;;0.64;100.00;96043.38;5065906;28;20075;-70
2021/10/28 05:20:53;;;;;;;60.63;23.55;;;;;;;0.61;100.00;96039.31;5066582;28;20048;-70
2021/10/28 05:23:21;;;;;;;45.20;19.63;;;;;;;0.62;100.00;96040.94;5064232;28;20116;-70
2021/10/28 05:25:48;;;;;;;40.08;17.13;;;;;;;0.66;100.00;96052.53;5049894;28;20051;-70
2021/10/28 05:28:15;;;;;;;34.17;16.73;;;;;;;0.73;100.00;96060.47;5065854;28;20497;-70
2021/10/28 05:30:42;;;;;;;45.17;20.92;;;;;;;0.79;100.00;96051.41;5067587;28;20067;-70
2021/10/28 05:33:14;;;;;;;41.20;21.25;;;;;;;0.83;100.00;96068.97;5067464;28;20524;-70
2021/10/28 05:35:41;;;;;;;73.30;32.03;;;;;;;0.90;100.00;96070.03;5063790;28;20044;-70
2021/10/28 05:38:08;;;;;;;67.57;32.08;;;;;;;0.92;100.00;96063.00;5065775;28;20054;-70
2021/10/28 05:40:35;;;;;;;73.68;34.22;;;;;;;1.01;100.00;96070.78;5067786;28;20071;-70
2021/10/28 05:43:03;;;;;;;74.50;34.35;;;;;;;1.00;100.00;96069.19;5070625;28;20052;-70
2021/10/28 05:45:31;;;;;;;57.45;28.50;;;;;;;0.93;100.00;96059.47;5048885;28;20053;-70
2021/10/28 05:47:59;;;;;;;57.50;26.75;;;;;;;0.97;100.00;96080.50;5065557;28;20044;-70
2021/10/28 05:50:26;;;;;;;61.30;28.80;;;;;;;0.85;100.00;96071.41;5063558;28;20456;-68
2021/10/28 05:52:55;;;;;;;57.78;23.85;;;;;;;0.72;100.00;96087.06;5061734;28;20526;-67
2021/10/28 05:55:23;;;;;;;55.53;26.80;;;;;;;0.61;100.00;96084.66;5063268;28;20040;-67
2021/10/28 05:57:50;;;;;;;52.13;23.73;;;;;;;0.52;100.00;96096.56;5064163;28;20047;-68
2021/10/28 06:00:19;;;;;;;55.72;22.02;;;;;;;0.60;100.00;96093.31;5062670;28;20049;-68
2021/10/28 06:02:46;;;;;;;55.50;19.27;;;;;;;0.66;100.00;96082.50;5062302;28;20033;-67
2021/10/28 06:05:13;;;;;;;48.67;21.30;;;;;;;0.65;100.00;96088.56;5063756;28;20074;-67
2021/10/28 06:07:42;;;;;;;65.72;20.08;;;;;;;0.74;100.00;96085.19;5063194;28;20044;-67
2021/10/28 06:10:12;;;;;;;83.88;32.33;;;;;;;0.62;100.00;96094.00;5062475;28;20448;-67
2021/10/28 06:12:41;;;;;;;67.70;28.75;;;;;;;0.47;100.00;96089.28;5063653;28;20041;-67
2021/10/28 06:15:10;;;;;;;33.00;18.42;;;;;;;0.51;100.00;96090.63;5064392;28;20079;-68
2021/10/28 06:17:43;;;;;;;53.00;21.33;;;;;;;0.45;100.00;96078.38;5063584;28;20048;-68
2021/10/28 06:20:10;;;;;;;55.47;20.77;;;;;;;0.62;100.00;96079.41;5061451;28;20460;-68
2021/10/28 06:22:37;;;;;;;63.13;25.48;;;;;;;0.90;100.00;96090.56;5066793;28;20605;-68
2021/10/28 06:25:04;;;;;;;58.95;21.33;;;;;;;1.02;100.00;96092.94;5066152;28;20044;-68
2021/10/28 06:27:31;;;;;;;40.78;17.58;;;;;;;1.02;100.00;96093.72;5048195;28;20032;-68
2021/10/28 06:29:59;;;;;;;44.97;19.85;;;;;;;1.27;100.00;96084.59;5061396;28;20055;-69
2021/10/28 06:32:26;;;;;;;47.38;21.33;;;;;;;1.50;100.00;96091.94;5060414;28;20051;-68
2021/10/28 06:34:53;;;;;;;47.40;20.85;;;;;;;1.75;100.00;96094.75;5061927;28;20079;-68
2021/10/28 06:37:20;;;;;;;57.75;21.90;;;;;;;1.84;100.00;96088.75;5063724;28;20037;-67
2021/10/28 06:39:47;;;;;;;45.58;20.98;;;;;;;1.95;100.00;96091.09;5064205;28;20040;-67
2021/10/28 06:42:14;;;;;;;49.20;21.27;;;;;;;2.06;100.00;96098.59;5068494;28;20055;-67
2021/10/28 06:44:43;;;;;;;58.80;25.00;;;;;;;2.24;100.00;96095.22;5061719;28;20162;-67
2021/10/28 06:47:10;;;;;;;67.28;27.70;;;;;;;2.22;100.00;96086.84;5064110;28;20250;-67
2021/10/28 06:49:40;;;;;;;46.97;22.73;;;;;;;2.32;100.00;96103.00;5066440;28;20036;-70
2021/10/28 06:52:10;;;;;;;45.25;21.13;;;;;;;2.49;100.00;96094.47;5063366;28;20110;-67
2021/10/28 06:54:40;;;;;;;49.25;18.95;;;;;;;2.62;100.00;96093.28;5063483;28;20047;-68
2021/10/28 07:04:58;;;;;;;65.50;26.30;;;;;;;2.78;100.00;96072.00;5059952;28;20514;-69
2021/10/28 07:07:30;;;;;;;54.20;23.35;;;;;;;2.91;100.00;96076.72;5059214;28;20051;-68
2021/10/28 07:10:13;;;;;;;41.90;20.55;;;;;;;3.03;100.00;96076.31;5061838;28;20472;-68
2021/10/28 07:13:26;;;;;;;61.95;24.30;;;;;;;3.18;100.00;96068.81;5062426;28;20049;-69
2021/10/28 07:15:43;;;;;;;40.75;20.63;;;;;;;3.43;100.00;96074.06;5050573;28;20060;-69
2021/10/28 07:36:37;;;;;;;33.42;15.38;;;;;;;5.08;100.00;96078.34;5065146;28;20452;-69
2021/10/28 07:39:26;;;;;;;29.92;15.68;;;;;;;5.02;100.00;96073.84;5062337;28;20516;-68
2021/10/28 08:20:12;;;;;;;33.90;15.57;;;;;;;6.64;98.61;96054.19;5066012;28;20497;-69
2021/10/28 08:22:47;;;;;;;26.60;13.65;;;;;;;6.87;98.89;96063.69;5063673;28;20045;-70
2021/10/28 08:30:45;;;;;;;24.92;13.32;;;;;;;7.02;95.54;96045.56;5062889;28;20135;-70
2021/10/28 08:33:12;;;;;;;22.90;12.23;;;;;;;6.94;95.29;96033.50;5070471;28;20039;-70
2021/10/28 08:35:41;;;;;;;23.63;13.40;;;;;;;7.10;96.17;96036.91;5070545;28;20486;-69
2021/10/28 08:38:08;;;;;;;27.63;13.98;;;;;;;7.19;96.72;96030.66;5067139;28;20040;-70
2021/10/28 08:40:35;;;;;;;22.00;11.93;;;;;;;7.24;95.62;96031.72;5071186;28;20064;-70
2021/10/28 08:43:03;;;;;;;25.52;13.32;;;;;;;7.47;96.03;96036.78;5068509;28;20126;-70
2021/10/28 08:45:35;;;;;;;31.70;14.02;;;;;;;7.85;94.77;96036.59;5068463;28;20051;-70
2021/10/28 08:48:05;;;;;;;27.25;14.13;;;;;;;8.11;93.46;96035.25;5071528;28;20048;-70
2021/10/28 08:53:23;;;;;;;25.67;13.82;;;;;;;8.47;89.73;96044.78;5063653;28;20048;-70
2021/10/28 08:56:19;;;;;;;19.75;10.43;;;;;;;8.69;87.91;96042.94;5067847;28;20127;-70
2021/10/28 09:24:05;;;;;;;16.63;10.90;;;;;;;11.59;74.22;96011.72;5067390;28;20043;-71
2021/10/28 09:26:43;;;;;;;17.80;9.15;;;;;;;11.76;71.78;96012.03;5051099;28;20051;-71
2021/10/28 09:29:41;;;;;;;15.90;9.85;;;;;;;12.03;72.96;96012.72;5066567;28;20044;-70
2021/10/28 09:43:40;;;;;;;15.27;8.33;;;;;;;14.27;62.21;95989.78;5064904;28;20055;-70
2021/10/28 09:51:38;;;;;;;8.13;5.90;;;;;;;15.22;52.26;95984.56;5063625;28;20045;-71
2021/10/28 09:54:29;;;;;;;12.02;5.57;;;;;;;15.88;53.04;95976.38;5065103;28;20049;-71
2021/10/28 09:59:56;;;;;;;12.23;7.15;;;;;;;16.05;51.54;95956.19;5065563;28;20502;-71
2021/10/28 10:05:17;;;;;;;10.90;7.18;;;;;;;16.81;47.08;95963.63;5063863;28;20075;-72
2021/10/28 10:07:56;;;;;;;8.43;5.53;;;;;;;17.03;46.58;95949.72;5066789;28;20048;-72
2021/10/28 10:10:28;;;;;;;8.60;5.80;;;;;;;17.54;44.99;95955.63;5067169;28;20044;-72
2021/10/28 10:12:56;;;;;;;8.85;5.80;;;;;;;17.61;46.56;95936.97;5066186;28;20514;-71
2021/10/28 10:15:24;;;;;;;10.05;6.13;;;;;;;18.40;43.79;95940.84;5064616;28;20048;-71
2021/10/28 10:17:53;;;;;;;11.65;6.60;;;;;;;18.49;41.41;95940.13;5062989;28;20122;-71
2021/10/28 10:20:28;;;;;;;10.55;5.78;;;;;;;18.17;41.00;95928.78;5064264;28;20692;-71
2021/10/28 11:30:09;;;;;;;4.13;2.78;;;;;;;21.29;27.42;95853.66;5064622;28;20039;-70
2021/10/28 12:45:50;;;;;;;3.65;1.80;;;;;;;21.60;25.98;95800.47;5062364;28;20387;-69
2021/10/28 12:54:12;;;;;;;2.75;1.70;;;;;;;21.39;25.25;95797.94;5067948;28;20520;-68
2021/10/28 13:53:48;;;;;;;53.83;22.80;;;;;;;21.10;28.50;95766.06;5071324;28;20036;-68
2021/10/28 14:16:37;;;;;;;199.43;83.95;;;;;;;20.90;27.69;95767.78;5072567;28;20059;-68
2021/10/28 14:20:55;;;;;;;28.92;13.02;;;;;;;20.43;28.85;95753.94;5071729;28;20759;-69
2021/10/28 15:29:51;;;;;;;10.20;4.00;;;;;;;15.04;37.41;95802.66;5064067;28;20043;-68
2021/10/28 15:34:51;;;;;;;5.13;2.97;;;;;;;14.90;38.94;95790.84;5061887;28;20623;-68
2021/10/28 15:38:04;;;;;;;7.18;2.95;;;;;;;14.70;40.12;95802.56;5064196;28;20055;-70
2021/10/28 16:23:42;;;;;;;9.48;4.70;;;;;;;12.94;50.96;95824.13;5065619;28;20041;-67
2021/10/28 16:26:09;;;;;;;15.18;5.18;;;;;;;12.53;53.27;95817.78;5062567;28;20952;-68
2021/10/28 16:28:35;;;;;;;11.10;6.30;;;;;;;12.36;53.82;95823.59;5066666;28;20059;-66
2021/10/28 16:31:02;;;;;;;14.02;7.07;;;;;;;12.09;54.98;95832.72;5072193;28;20051;-65
2021/10/28 16:33:29;;;;;;;17.77;9.55;;;;;;;11.92;55.92;95828.03;5072143;28;20076;-67
2021/10/28 16:35:56;;;;;;;16.85;9.45;;;;;;;11.72;56.91;95822.16;5069665;28;20044;-67
2021/10/28 16:38:24;;;;;;;10.48;6.47;;;;;;;11.80;56.06;95814.06;5069880;28;20044;-67
2021/10/28 16:40:51;;;;;;;12.00;7.22;;;;;;;11.92;55.96;95828.03;5067958;28;20048;-67
2021/10/28 16:43:18;;;;;;;13.07;9.65;;;;;;;11.85;56.57;95829.88;5055098;28;20047;-67
2021/10/28 16:45:46;;;;;;;16.63;9.70;;;;;;;11.83;57.02;95834.53;5053090;28;20113;-68
2021/10/28 16:48:15;;;;;;;33.55;12.75;;;;;;;11.79;57.87;95828.13;5071322;28;20067;-68
2021/10/28 16:50:42;;;;;;;55.60;34.97;;;;;;;10.57;62.12;95830.81;5067902;28;20079;-67
2021/10/28 16:53:09;;;;;;;43.20;21.75;;;;;;;10.06;65.83;95816.72;5065891;28;20044;-68
2021/10/28 16:55:58;;;;;;;62.63;33.70;;;;;;;10.33;65.66;95840.91;5065715;28;20040;-68
2021/10/28 16:58:24;;;;;;;67.28;35.47;;;;;;;10.47;65.51;95839.88;5068186;28;20047;-68
2021/10/28 17:00:51;;;;;;;67.93;36.72;;;;;;;10.61;65.61;95821.63;5069639;28;20068;-68
2021/10/28 17:03:19;;;;;;;51.97;28.23;;;;;;;10.80;63.95;95851.19;5064992;28;20045;-68
2021/10/28 17:05:47;;;;;;;46.05;19.15;;;;;;;10.89;62.87;95834.31;5067335;28;20040;-68
2021/10/28 17:08:15;;;;;;;39.80;18.50;;;;;;;11.05;63.10;95843.47;5069271;28;20037;-67
2021/10/28 17:10:43;;;;;;;35.28;14.88;;;;;;;11.01;62.78;95847.50;5067872;28;20525;-67
2021/10/28 17:13:10;;;;;;;29.63;15.32;;;;;;;11.07;62.34;95851.88;5073850;28;20032;-67
2021/10/28 17:15:37;;;;;;;26.00;14.60;;;;;;;11.03;62.59;95851.47;5067322;28;20518;-67
2021/10/28 17:18:03;;;;;;;20.40;12.20;;;;;;;10.93;62.61;95851.16;5050262;28;20071;-67
2021/10/28 17:20:35;;;;;;;27.38;16.90;;;;;;;10.82;63.25;95850.00;5066060;28;20505;-67
2021/10/28 17:23:04;;;;;;;21.52;13.73;;;;;;;10.83;62.85;95856.00;5065971;28;20458;-67
2021/10/28 17:25:37;;;;;;;13.82;7.70;;;;;;;10.84;62.51;95868.81;5053563;28;20059;-68
2021/10/28 17:28:05;;;;;;;11.15;6.88;;;;;;;10.74;62.74;95873.66;5064472;28;20502;-67
2021/10/28 17:30:32;;;;;;;10.55;6.47;;;;;;;10.62;62.45;95854.47;5050246;28;20037;-68
2021/10/28 17:32:59;;;;;;;14.35;8.27;;;;;;;10.60;62.85;95866.91;5065028;28;20057;-68
2021/10/28 17:35:27;;;;;;;15.93;7.93;;;;;;;10.47;64.96;95863.31;5066105;28;20056;-69
2021/10/28 17:37:56;;;;;;;13.57;7.05;;;;;;;10.30;65.38;95868.16;5061806;28;20036;-68
2021/10/28 17:40:24;;;;;;;12.18;6.97;;;;;;;10.15;65.81;95870.16;5069543;28;20060;-67
2021/10/28 17:42:55;;;;;;;10.45;6.57;;;;;;;10.05;65.94;95867.97;5066434;28;20106;-67
2021/10/28 17:45:26;;;;;;;13.07;6.70;;;;;;;10.01;68.64;95869.38;5067736;28;20445;-67
2021/10/28 17:47:55;;;;;;;16.55;8.88;;;;;;;9.80;69.42;95867.00;5064056;28;20042;-66
2021/10/28 17:50:24;;;;;;;12.90;8.32;;;;;;;9.69;69.08;95871.78;5070076;28;20036;-67
2021/10/28 17:52:51;;;;;;;14.52;8.50;;;;;;;9.65;69.46;95870.59;5048581;28;20048;-68
2021/10/28 17:55:17;;;;;;;17.05;10.73;;;;;;;9.33;71.38;95878.13;5066089;28;20051;-68
2021/10/28 17:57:46;;;;;;;22.23;11.40;;;;;;;8.95;73.53;95870.84;5048727;28;20058;-67
2021/10/28 18:00:13;;;;;;;26.48;11.55;;;;;;;8.53;77.53;95877.03;5067053;28;20039;-67
2021/10/28 18:02:40;;;;;;;16.70;9.73;;;;;;;8.13;80.25;95877.56;5078050;28;20047;-67
2021/10/28 18:05:09;;;;;;;17.48;9.95;;;;;;;7.74;82.25;95863.34;5065145;28;20047;-67
2021/10/28 18:07:36;;;;;;;14.70;7.25;;;;;;;7.71;82.88;95881.88;5065919;28;20115;-67
2021/10/28 18:10:05;;;;;;;17.55;9.50;;;;;;;7.85;82.42;95880.97;5069269;28;20032;-68
2021/10/28 18:12:35;;;;;;;19.52;10.05;;;;;;;8.14;80.93;95879.19;5064070;28;20052;-67
2021/10/28 18:15:04;;;;;;;17.98;9.77;;;;;;;7.85;81.76;95880.97;5062639;28;20056;-67
2021/10/28 18:17:32;;;;;;;16.00;8.95;;;;;;;7.78;81.90;95880.13;5060854;28;20032;-67
2021/10/28 18:20:02;;;;;;;12.02;7.18;;;;;;;8.18;79.84;95882.22;5074858;28;20044;-68
2021/10/28 18:22:30;;;;;;;13.85;7.30;;;;;;;8.32;78.80;95883.06;5073920;28;21243;-70
2021/10/28 18:24:57;;;;;;;19.45;11.77;;;;;;;8.41;78.20;95887.94;5064419;28;20094;-67
2021/10/28 18:27:24;;;;;;;14.52;7.80;;;;;;;8.32;78.03;95885.66;5065667;28;20047;-69
2021/10/28 18:29:51;;;;;;;13.55;7.53;;;;;;;8.35;77.49;95890.50;5063363;28;20044;-68
2021/10/28 18:32:19;;;;;;;16.27;8.00;;;;;;;8.42;76.39;95886.16;5061896;28;20036;-68
2021/10/28 18:34:46;;;;;;;20.40;8.95;;;;;;;8.50;75.10;95891.22;5060486;28;20051;-67
2021/10/28 18:37:13;;;;;;;22.15;11.10;;;;;;;8.53;74.78;95893.41;5060859;28;20075;-67
2021/10/28 18:39:40;;;;;;;22.20;11.90;;;;;;;8.53;74.37;95893.41;5060612;28;20059;-68
2021/10/28 18:42:07;;;;;;;20.63;10.85;;;;;;;8.38;73.90;95884.94;5063749;28;20037;-68
2021/10/28 18:44:34;;;;;;;16.60;9.80;;;;;;;8.42;73.63;95892.16;5059104;28;20131;-69
2021/10/28 18:47:01;;;;;;;21.05;12.00;;;;;;;8.34;74.08;95897.47;5060055;28;20040;-68
2021/10/28 18:49:28;;;;;;;17.98;10.45;;;;;;;8.28;74.28;95889.66;5059931;28;20037;-68
2021/10/28 18:51:55;;;;;;;13.93;6.57;;;;;;;8.18;74.10;95890.78;5061449;28;20051;-68
2021/10/28 18:54:23;;;;;;;10.63;6.28;;;;;;;8.09;74.31;95891.94;5064243;28;20070;-68
2021/10/28 18:56:49;;;;;;;12.20;6.78;;;;;;;7.99;75.04;95891.44;5063631;28;20052;-68
2021/10/28 18:59:17;;;;;;;11.13;6.20;;;;;;;7.83;75.60;95882.97;5069735;28;20040;-68
2021/10/28 19:01:48;;;;;;;21.20;7.25;;;;;;;7.87;75.61;95892.94;5061729;28;20052;-68
2021/10/28 19:04:17;;;;;;;10.02;5.57;;;;;;;7.76;76.30;95882.09;5060284;28;20052;-66
2021/10/28 19:06:46;;;;;;;8.40;4.78;;;;;;;7.74;76.68;95889.28;5062102;28;20052;-66
2021/10/28 19:09:14;;;;;;;10.23;4.85;;;;;;;7.59;77.65;95885.94;5046981;28;23067;-66
2021/10/28 19:11:41;;;;;;;12.60;7.45;;;;;;;7.33;78.88;95887.31;5060178;28;20048;-66
2021/10/28 19:14:08;;;;;;;8.85;5.40;;;;;;;6.78;81.69;95889.47;5063291;28;20052;-67
2021/10/28 19:16:35;;;;;;;12.63;7.20;;;;;;;6.79;81.02;95895.44;5076812;28;20043;-67
2021/10/28 19:19:03;;;;;;;12.98;7.40;;;;;;;6.86;80.39;95896.34;5061296;28;20050;-67
2021/10/28 19:21:31;;;;;;;11.43;6.38;;;;;;;6.83;80.13;95888.94;5061674;28;20040;-67
2021/10/28 19:23:58;;;;;;;14.75;6.85;;;;;;;6.73;81.74;95898.78;5077993;28;20097;-67
2021/10/28 19:26:25;;;;;;;9.10;5.38;;;;;;;6.46;81.40;95881.13;5061463;28;20052;-67
2021/10/28 19:28:52;;;;;;;11.75;5.78;;;;;;;6.59;81.31;95906.38;5059635;28;20579;-67
2021/10/28 19:33:48;;;;;;;11.85;6.22;;;;;;;6.52;81.83;95895.13;5062457;28;20048;-67
2021/10/28 19:36:26;;;;;;;11.20;5.55;;;;;;;6.47;82.02;95902.63;5062559;28;20060;-67
2021/10/28 19:40:07;;;;;;;14.32;5.75;;;;;;;6.37;82.94;95891.72;5061339;28;20407;-68
2021/10/28 19:47:06;;;;;;;14.18;6.68;;;;;;;6.47;83.36;95912.97;5060703;28;20032;-67
2021/10/28 19:49:33;;;;;;;14.07;6.40;;;;;;;6.36;84.45;95896.09;5061828;28;20422;-67
2021/10/28 19:52:06;;;;;;;21.63;8.43;;;;;;;6.46;83.92;95907.00;5061884;28;20055;-68
2021/10/28 19:54:35;;;;;;;14.10;7.15;;;;;;;6.52;83.46;95908.06;5060360;28;20079;-68
2021/10/28 19:57:02;;;;;;;10.00;5.63;;;;;;;6.59;82.71;95916.72;5059709;28;20048;-68
2021/10/28 19:59:34;;;;;;;9.18;5.07;;;;;;;6.57;82.57;95912.69;5060788;28;20059;-67
2021/10/28 20:02:07;;;;;;;7.78;4.57;;;;;;;6.57;82.40;95913.53;5063936;28;20062;-68
2021/10/28 20:07:40;;;;;;;8.05;4.18;;;;;;;6.54;82.10;95913.06;5047603;28;20057;-69
2021/10/28 20:21:12;;;;;;;10.50;5.20;;;;;;;6.32;82.73;95910.41;5067617;28;20048;-69
2021/10/28 20:23:40;;;;;;;8.40;5.00;;;;;;;6.26;83.17;95901.53;5064959;28;20048;-69
2021/10/28 20:26:07;;;;;;;6.55;4.10;;;;;;;6.28;84.21;95909.94;5068321;28;20874;-69
2021/10/28 20:28:40;;;;;;;8.45;3.78;;;;;;;6.18;84.46;95893.88;5066615;28;20040;-69
2021/10/28 20:31:11;;;;;;;8.45;4.35;;;;;;;6.23;85.49;95914.84;5064680;28;20037;-69
2021/10/28 20:33:43;;;;;;;7.05;4.32;;;;;;;6.17;86.49;95912.94;5067346;28;20041;-69
2021/10/28 20:38:37;;;;;;;7.03;3.67;;;;;;;6.16;86.51;95906.19;5064082;28;20053;-69
2021/10/28 20:41:05;;;;;;;6.28;3.85;;;;;;;6.18;86.01;95893.88;5064849;28;20051;-69
2021/10/28 20:43:33;;;;;;;9.50;4.75;;;;;;;6.25;85.91;95899.16;5064369;28;20036;-68
2021/10/28 20:46:00;;;;;;;6.75;3.47;;;;;;;6.17;86.73;95910.34;5065560;28;20045;-69